Time;durP1;ratioP1;P1;durP2;ratioP2;P2;SDS_P1;SDS_P2;PMS_P1;PMS_P2;Temp;Humidity;BMP_temperature;BMP_pressure;BME280_temperature;BME280_humidity;BME280_pressure;Samples;Min_cycle;Max_cycle;Signal;HPM_P1;HPM_P2
2022/01/22 00:01:10;;;;;;;;;0.00;0.00;17.40;99.90;;;;;;5012013;28;10751;-46
2022/01/22 00:03:43;;;;;;;;;0.00;0.00;17.40;99.90;;;;;;4996354;28;9773;-46
2022/01/22 00:06:14;;;;;;;;;0.00;0.00;17.40;99.90;;;;;;5015244;28;10040;-48
2022/01/22 00:08:46;;;;;;;;;0.00;0.00;17.40;99.90;;;;;;5017001;28;9794;-44
2022/01/22 00:11:17;;;;;;;;;0.00;0.00;17.40;99.90;;;;;;5013257;28;9512;-43
2022/01/22 00:16:38;;;;;;;;;0.00;0.00;17.40;99.90;;;;;;5018055;28;9593;-45
2022/01/22 00:19:10;;;;;;;;;0.00;0.00;17.40;99.90;;;;;;5015552;28;9575;-47
2022/01/22 00:21:44;;;;;;;;;0.00;0.00;17.40;99.90;;;;;;5014586;28;9604;-47
2022/01/22 00:24:14;;;;;;;;;0.00;0.00;17.40;99.90;;;;;;5015498;28;9636;-46
2022/01/22 00:26:46;;;;;;;;;0.00;0.00;17.50;99.90;;;;;;5017851;28;9620;-44
2022/01/22 00:29:17;;;;;;;;;0.00;0.00;17.40;99.90;;;;;;5014614;28;9736;-44
2022/01/22 00:31:48;;;;;;;;;0.00;0.00;17.50;99.90;;;;;;5015680;28;9879;-46
2022/01/22 00:34:19;;;;;;;;;0.00;0.00;17.50;99.90;;;;;;5021142;28;9802;-48
2022/01/22 00:36:50;;;;;;;;;0.00;0.00;17.50;99.90;;;;;;5016908;28;9694;-49
2022/01/22 00:39:21;;;;;;;;;0.00;0.00;17.40;99.90;;;;;;5020369;28;9691;-49
2022/01/22 00:41:53;;;;;;;;;1.00;1.00;17.50;99.90;;;;;;5017840;28;9710;-44
2022/01/22 00:44:25;;;;;;;;;1.75;1.75;17.40;99.90;;;;;;5018267;28;10646;-50
2022/01/22 00:47:00;;;;;;;;;0.00;0.00;17.50;99.90;;;;;;4999903;28;9882;-46
2022/01/22 00:49:31;;;;;;;;;0.00;0.00;17.50;99.90;;;;;;5004837;28;9709;-46
2022/01/22 00:52:05;;;;;;;;;0.00;0.00;17.50;99.90;;;;;;5004890;28;9870;-44
2022/01/22 00:54:37;;;;;;;;;0.00;0.00;17.40;99.90;;;;;;5016234;28;9892;-46
2022/01/22 00:57:08;;;;;;;;;0.00;0.00;17.50;99.90;;;;;;5018786;28;9713;-44
2022/01/22 00:59:39;;;;;;;;;0.75;0.00;17.50;99.90;;;;;;5001442;28;9699;-45
2022/01/22 01:02:11;;;;;;;;;0.00;0.00;17.50;99.90;;;;;;5022297;28;9809;-50
2022/01/22 01:04:44;;;;;;;;;0.00;0.00;17.50;99.90;;;;;;5020769;28;9764;-42
2022/01/22 01:07:14;;;;;;;;;0.00;0.00;17.40;99.90;;;;;;5021653;28;9757;-46
2022/01/22 01:09:44;;;;;;;;;0.00;0.00;17.40;99.90;;;;;;5018523;28;9723;-49
2022/01/22 01:12:15;;;;;;;;;0.00;0.00;17.40;99.90;;;;;;4996022;28;9688;-44
2022/01/22 01:15:07;;;;;;;;;0.00;0.00;17.40;99.90;;;;;;5003112;28;10024;-47
2022/01/22 01:34:25;;;;;;;;;0.00;0.00;17.30;99.90;;;;;;5005185;28;9834;-46
2022/01/22 01:36:57;;;;;;;;;0.00;0.00;17.30;99.90;;;;;;5020428;28;10372;-47
2022/01/22 01:39:32;;;;;;;;;0.00;0.00;17.30;99.90;;;;;;5003993;28;9867;-49
2022/01/22 01:42:08;;;;;;;;;0.00;0.00;17.30;99.90;;;;;;5003061;28;9817;-48
2022/01/22 01:44:41;;;;;;;;;0.00;0.00;17.30;99.90;;;;;;5002103;28;9857;-47
2022/01/22 01:47:17;;;;;;;;;0.00;0.00;17.30;99.90;;;;;;4998641;28;9933;-49
2022/01/22 01:49:48;;;;;;;;;0.00;0.00;17.30;99.90;;;;;;5020000;28;9778;-48
2022/01/22 01:52:41;;;;;;;;;0.00;0.00;17.30;99.90;;;;;;5002571;28;10483;-48
2022/01/22 01:55:32;;;;;;;;;0.00;0.00;17.30;99.90;;;;;;5002991;28;9984;-48
2022/01/22 01:58:15;;;;;;;;;0.00;0.00;17.30;99.90;;;;;;5003961;28;9929;-49
2022/01/22 02:00:46;;;;;;;;;0.00;0.00;17.30;99.90;;;;;;5001587;28;10021;-48
2022/01/22 02:03:20;;;;;;;;;0.00;0.00;17.20;99.90;;;;;;5019753;28;9989;-46
2022/01/22 02:06:03;;;;;;;;;0.00;0.00;17.20;99.90;;;;;;5008442;28;10700;-50
2022/01/22 02:08:36;;;;;;;;;0.00;0.00;17.20;99.90;;;;;;5001893;28;10075;-46
2022/01/22 02:11:14;;;;;;;;;0.00;0.00;17.20;99.90;;;;;;5005881;28;10098;-48
2022/01/22 02:25:50;;;;;;;;;3.75;3.75;17.10;99.90;;;;;;5014899;28;10650;-47
2022/01/22 02:28:21;;;;;;;;;2.75;2.75;17.00;99.90;;;;;;5001180;28;11510;-43
2022/01/22 02:31:02;;;;;;;;;5.00;5.00;17.00;99.90;;;;;;5002234;28;11858;-45
2022/01/22 02:36:28;;;;;;;;;20.75;20.75;16.90;99.90;;;;;;5015256;28;11569;-53
2022/01/22 02:39:13;;;;;;;;;19.25;19.25;16.90;99.90;;;;;;5003193;28;11523;-52
2022/01/22 02:41:47;;;;;;;;;21.00;21.00;16.80;99.90;;;;;;4999348;28;11493;-46
2022/01/22 02:44:46;;;;;;;;;4.00;4.00;16.80;99.90;;;;;;5017729;28;11506;-49
2022/01/22 02:47:17;;;;;;;;;1.00;1.00;16.70;99.90;;;;;;4999433;28;11467;-46
2022/01/22 02:49:48;;;;;;;;;1.00;1.00;16.70;99.90;;;;;;5016255;28;10452;-47
2022/01/22 02:52:20;;;;;;;;;1.00;1.00;16.70;99.90;;;;;;5020440;28;10399;-48
2022/01/22 02:54:53;;;;;;;;;1.50;1.50;16.70;99.90;;;;;;5017214;28;10320;-48
2022/01/22 02:57:25;;;;;;;;;0.00;0.00;16.70;99.90;;;;;;5017197;28;10351;-49
2022/01/22 03:00:00;;;;;;;;;1.00;1.00;16.60;99.90;;;;;;4999674;28;10399;-44
2022/01/22 03:02:31;;;;;;;;;2.00;2.00;16.60;99.90;;;;;;5004525;28;10466;-50
2022/01/22 03:05:03;;;;;;;;;2.00;2.00;16.60;99.90;;;;;;5012865;28;11813;-43
2022/01/22 03:07:36;;;;;;;;;2.50;2.50;16.50;99.90;;;;;;5004553;28;10345;-50
2022/01/22 03:10:16;;;;;;;;;3.25;3.25;16.50;99.90;;;;;;5002557;28;11214;-51
2022/01/22 03:17:58;;;;;;;;;6.50;6.50;16.40;99.90;;;;;;5005830;28;10785;-48
2022/01/22 03:29:17;;;;;;;;;4.00;4.00;16.30;99.90;;;;;;5016270;28;11431;-45
2022/01/22 03:31:50;;;;;;;;;5.00;5.00;16.20;99.90;;;;;;5018865;28;10773;-46
2022/01/22 03:34:21;;;;;;;;;3.50;3.50;16.20;99.90;;;;;;5016436;28;10822;-47
2022/01/22 03:36:53;;;;;;;;;3.50;3.50;16.10;99.90;;;;;;4999802;28;10841;-44
2022/01/22 03:39:23;;;;;;;;;3.00;3.00;16.10;99.90;;;;;;4997794;28;10961;-46
2022/01/22 03:41:55;;;;;;;;;4.00;4.00;16.10;99.90;;;;;;4985328;28;11003;-47
2022/01/22 03:44:27;;;;;;;;;2.00;2.00;16.00;99.90;;;;;;4986376;28;10666;-49
2022/01/22 03:47:00;;;;;;;;;2.25;2.25;16.00;99.90;;;;;;5015183;28;10792;-45
2022/01/22 03:49:31;;;;;;;;;2.25;2.25;16.00;99.90;;;;;;5001437;28;10950;-47
2022/01/22 03:52:05;;;;;;;;;3.75;3.75;15.90;99.90;;;;;;5002290;28;10839;-44
2022/01/22 03:54:36;;;;;;;;;9.25;9.25;16.00;99.90;;;;;;5002406;28;10942;-48
2022/01/22 03:57:09;;;;;;;;;14.25;14.25;15.90;99.90;;;;;;5003020;28;11028;-43
2022/01/22 03:59:48;;;;;;;;;11.00;11.00;15.80;99.90;;;;;;5024961;28;11429;-43
2022/01/22 04:05:15;;;;;;;;;9.50;8.00;15.80;99.90;;;;;;4999409;28;11092;-44
2022/01/22 04:08:10;;;;;;;;;5.00;5.00;15.70;99.90;;;;;;5024090;28;11048;-46
2022/01/22 04:10:44;;;;;;;;;5.00;4.25;15.70;99.90;;;;;;5021917;28;11740;-44
2022/01/22 04:13:17;;;;;;;;;4.00;4.00;15.70;99.90;;;;;;5019895;28;11006;-44
2022/01/22 04:15:48;;;;;;;;;6.25;6.25;15.70;99.90;;;;;;5005910;28;11935;-46
2022/01/22 04:26:57;;;;;;;;;12.00;10.75;15.50;99.90;;;;;;5020909;28;11456;-44
2022/01/22 04:29:30;;;;;;;;;11.00;11.00;15.40;99.90;;;;;;5020112;28;11444;-45
2022/01/22 04:32:01;;;;;;;;;6.25;6.25;15.40;99.90;;;;;;5020041;28;11519;-45
2022/01/22 04:34:32;;;;;;;;;9.50;7.75;15.40;99.90;;;;;;5018400;28;11471;-48
2022/01/22 04:37:03;;;;;;;;;6.75;5.25;15.40;99.90;;;;;;4990282;28;11402;-53
2022/01/22 04:39:35;;;;;;;;;5.25;5.25;15.40;99.90;;;;;;5003090;28;11785;-53
2022/01/22 04:42:08;;;;;;;;;3.75;3.75;15.40;99.90;;;;;;5017963;28;11579;-43
2022/01/22 04:44:51;;;;;;;;;5.00;5.00;15.40;99.90;;;;;;5016038;28;11413;-47
2022/01/22 04:47:43;;;;;;;;;4.25;4.25;15.30;99.90;;;;;;4990171;28;11078;-45
2022/01/22 04:55:43;;;;;;;;;3.00;3.00;15.20;99.90;;;;;;5005065;28;11144;-44
2022/01/22 04:58:15;;;;;;;;;4.00;4.00;15.10;99.90;;;;;;5004991;28;11486;-43
2022/01/22 05:00:47;;;;;;;;;3.75;2.25;15.10;99.90;;;;;;5010641;28;11235;-44
2022/01/22 05:03:38;;;;;;;;;1.25;1.25;15.10;99.90;;;;;;4976996;28;11087;-44
2022/01/22 05:06:29;;;;;;;;;1.25;1.25;15.10;99.90;;;;;;5024711;28;10945;-45
2022/01/22 05:09:23;;;;;;;;;1.00;1.00;15.10;99.90;;;;;;5019165;28;10841;-50
2022/01/22 05:11:58;;;;;;;;;0.00;0.00;15.10;99.90;;;;;;5017500;28;11167;-46
2022/01/22 05:14:29;;;;;;;;;0.00;0.00;15.10;99.90;;;;;;5015909;28;10896;-46
2022/01/22 05:17:04;;;;;;;;;0.00;0.00;15.20;99.90;;;;;;4999529;28;10970;-47
2022/01/22 05:25:22;;;;;;;;;0.00;0.00;15.30;99.90;;;;;;5019057;28;10816;-48
2022/01/22 05:28:29;;;;;;;;;1.00;1.00;15.30;99.90;;;;;;5014403;28;10732;-49
2022/01/22 05:31:54;;;;;;;;;0.00;0.00;15.30;99.90;;;;;;5019405;28;11572;-48
2022/01/22 05:38:07;;;;;;;;;0.00;0.00;15.30;99.90;;;;;;4964636;28;10628;-46
2022/01/22 05:40:37;;;;;;;;;0.00;0.00;15.30;99.90;;;;;;5000803;28;10756;-46
2022/01/22 05:43:10;;;;;;;;;1.25;1.25;15.30;99.90;;;;;;5006034;28;10860;-44
2022/01/22 05:45:44;;;;;;;;;1.00;1.00;15.20;99.90;;;;;;5021607;28;10863;-44
2022/01/22 05:48:15;;;;;;;;;0.00;0.00;15.20;99.90;;;;;;5016606;28;10734;-46
2022/01/22 06:01:32;;;;;;;;;0.25;0.25;15.30;99.90;;;;;;5002668;28;11566;-47
2022/01/22 06:04:14;;;;;;;;;0.00;0.00;15.30;99.90;;;;;;5018273;28;10808;-48
2022/01/22 06:06:47;;;;;;;;;1.50;1.00;15.30;99.90;;;;;;5002576;28;10837;-47
2022/01/22 06:09:21;;;;;;;;;1.50;1.50;15.20;99.90;;;;;;5003652;28;10775;-49
2022/01/22 06:14:47;;;;;;;;;0.00;0.00;15.20;99.90;;;;;;5008035;28;10917;-46
2022/01/22 06:17:20;;;;;;;;;1.00;1.00;15.20;99.90;;;;;;4998450;28;10851;-47
2022/01/22 06:19:57;;;;;;;;;0.00;0.00;15.10;99.90;;;;;;5000859;28;10999;-48
2022/01/22 06:22:27;;;;;;;;;0.00;0.00;15.10;99.90;;;;;;5018100;28;11394;-44
2022/01/22 06:24:59;;;;;;;;;0.00;0.00;15.10;99.90;;;;;;5004859;28;10826;-46
2022/01/22 06:27:32;;;;;;;;;0.00;0.00;15.10;99.90;;;;;;5001485;28;10893;-47
2022/01/22 06:30:02;;;;;;;;;0.00;0.00;15.20;99.90;;;;;;5017216;28;10744;-46
2022/01/22 06:32:40;;;;;;;;;0.00;0.00;15.20;99.90;;;;;;4999949;28;10637;-46
2022/01/22 06:35:14;;;;;;;;;0.00;0.00;15.20;99.90;;;;;;5000279;28;10773;-44
2022/01/22 06:37:46;;;;;;;;;0.00;0.00;15.20;99.90;;;;;;5017999;28;10722;-47
2022/01/22 06:43:29;;;;;;;;;0.00;0.00;15.20;99.90;;;;;;5024996;28;10737;-45
2022/01/22 06:46:25;;;;;;;;;0.00;0.00;15.20;99.90;;;;;;4994888;28;10793;-46
2022/01/22 06:49:16;;;;;;;;;0.00;0.00;15.20;99.90;;;;;;5017434;28;10659;-50
2022/01/22 06:52:13;;;;;;;;;0.00;0.00;15.20;99.90;;;;;;5008852;28;10776;-45
2022/01/22 06:54:45;;;;;;;;;0.00;0.00;15.20;99.90;;;;;;4986756;28;10695;-43
2022/01/22 06:57:17;;;;;;;;;0.00;0.00;15.20;99.90;;;;;;5017826;28;10842;-44
2022/01/22 06:59:49;;;;;;;;;0.00;0.00;15.10;99.90;;;;;;4986553;28;10942;-43
2022/01/22 07:02:23;;;;;;;;;0.00;0.00;15.10;99.90;;;;;;5015038;28;11561;-45
2022/01/22 07:04:55;;;;;;;;;0.00;0.00;15.10;99.90;;;;;;5005872;28;10924;-45
2022/01/22 07:07:49;;;;;;;;;0.00;0.00;15.20;99.90;;;;;;4994593;28;10744;-48
2022/01/22 07:10:19;;;;;;;;;0.00;0.00;15.10;99.90;;;;;;5018174;28;11321;-45
2022/01/22 07:12:50;;;;;;;;;0.00;0.00;15.10;99.90;;;;;;5013878;28;10709;-47
2022/01/22 07:15:21;;;;;;;;;0.00;0.00;15.10;99.90;;;;;;5004425;28;10687;-45
2022/01/22 07:17:55;;;;;;;;;0.75;0.75;15.10;99.90;;;;;;5012390;28;10812;-46
2022/01/22 07:20:30;;;;;;;;;1.00;1.00;15.00;99.90;;;;;;5014775;28;10920;-48
2022/01/22 07:23:13;;;;;;;;;0.50;0.50;15.00;99.90;;;;;;4999072;28;11053;-47
2022/01/22 07:25:54;;;;;;;;;1.00;1.00;15.00;99.90;;;;;;5014868;28;11063;-46
2022/01/22 07:28:45;;;;;;;;;1.00;1.00;14.90;99.90;;;;;;5014318;28;11036;-47
2022/01/22 07:31:27;;;;;;;;;0.00;0.00;14.90;99.90;;;;;;5003484;28;11224;-46
2022/01/22 07:34:05;;;;;;;;;0.25;0.25;14.90;99.90;;;;;;4999374;28;10990;-48
2022/01/22 07:36:36;;;;;;;;;1.00;1.00;14.90;99.90;;;;;;5000701;28;12008;-51
2022/01/22 07:39:08;;;;;;;;;0.00;0.00;14.80;99.90;;;;;;5017560;28;10995;-49
2022/01/22 07:41:59;;;;;;;;;1.00;1.00;14.80;99.90;;;;;;5016198;28;11086;-47
2022/01/22 07:44:52;;;;;;;;;1.00;1.00;14.80;99.90;;;;;;5015133;28;10915;-46
2022/01/22 07:47:23;;;;;;;;;0.00;0.00;14.80;99.90;;;;;;5004027;28;11107;-46
2022/01/22 07:49:57;;;;;;;;;0.00;0.00;14.70;99.90;;;;;;5004626;28;11939;-46
2022/01/22 07:52:27;;;;;;;;;0.50;0.50;14.70;99.90;;;;;;5001835;28;10779;-46
2022/01/22 07:54:58;;;;;;;;;1.00;1.00;14.70;99.90;;;;;;5017568;28;11497;-46
2022/01/22 07:57:29;;;;;;;;;0.00;0.00;14.70;99.90;;;;;;5002771;28;11823;-45
2022/01/22 08:00:09;;;;;;;;;0.00;0.00;14.60;99.90;;;;;;5000961;28;12041;-46
2022/01/22 08:02:45;;;;;;;;;0.00;0.00;14.60;99.90;;;;;;5021227;28;11397;-45
2022/01/22 08:05:51;;;;;;;;;0.00;0.00;14.60;99.90;;;;;;5015627;28;11800;-45
2022/01/22 08:08:39;;;;;;;;;1.00;1.00;14.60;99.90;;;;;;5021251;28;11032;-47
2022/01/22 08:11:28;;;;;;;;;2.00;2.00;14.50;99.90;;;;;;5023212;28;11320;-48
2022/01/22 08:13:59;;;;;;;;;1.25;1.25;14.50;99.90;;;;;;4999617;28;11878;-45
2022/01/22 08:16:29;;;;;;;;;0.00;0.00;14.50;99.90;;;;;;5001264;28;12230;-47
2022/01/22 08:19:01;;;;;;;;;1.00;1.00;14.50;99.90;;;;;;5015592;28;11136;-48
2022/01/22 08:21:33;;;;;;;;;5.00;3.00;14.50;99.90;;;;;;5000585;28;12163;-49
2022/01/22 08:24:25;;;;;;;;;3.25;3.25;14.40;99.90;;;;;;5023180;28;11418;-50
2022/01/22 08:27:21;;;;;;;;;2.00;2.00;14.40;99.90;;;;;;5015837;28;11469;-45
2022/01/22 08:29:53;;;;;;;;;0.75;0.00;14.40;99.90;;;;;;5003402;28;11553;-46
2022/01/22 08:38:03;;;;;;;;;0.00;0.00;14.30;99.90;;;;;;5003358;28;11431;-53
2022/01/22 08:40:35;;;;;;;;;0.00;0.00;14.30;99.90;;;;;;5014264;28;11444;-45
2022/01/22 08:43:05;;;;;;;;;0.00;0.00;14.30;99.90;;;;;;5017851;28;11478;-47
2022/01/22 08:45:37;;;;;;;;;0.00;0.00;14.20;99.90;;;;;;5005137;28;11434;-45
2022/01/22 08:48:08;;;;;;;;;0.00;0.00;14.30;99.90;;;;;;5006157;28;11471;-49
2022/01/22 08:50:40;;;;;;;;;0.00;0.00;14.20;99.90;;;;;;5002471;28;11953;-47
2022/01/22 08:53:15;;;;;;;;;0.00;0.00;14.20;99.90;;;;;;5021233;28;11420;-47
2022/01/22 08:55:46;;;;;;;;;0.00;0.00;14.10;99.90;;;;;;5017181;28;11443;-45
2022/01/22 08:58:17;;;;;;;;;0.25;0.25;14.00;99.90;;;;;;5003930;28;11618;-45
2022/01/22 09:00:57;;;;;;;;;0.00;0.00;14.10;99.90;;;;;;5001475;28;12185;-45
2022/01/22 09:03:33;;;;;;;;;1.50;1.00;14.00;99.90;;;;;;5005054;28;11465;-44
2022/01/22 09:06:23;;;;;;;;;1.00;1.00;14.00;99.90;;;;;;5025949;28;11666;-46
2022/01/22 09:09:14;;;;;;;;;10.75;10.75;13.90;99.90;;;;;;5003710;28;11484;-48
2022/01/22 09:12:21;;;;;;;;;1.75;1.75;13.90;99.90;;;;;;5020513;28;11518;-47
2022/01/22 09:14:55;;;;;;;;;1.00;1.00;13.80;99.90;;;;;;5021624;28;11434;-44
2022/01/22 09:17:27;;;;;;;;;1.00;1.00;13.70;99.90;;;;;;4994717;28;11427;-43
2022/01/22 09:20:01;;;;;;;;;0.75;0.75;13.70;99.90;;;;;;5019070;28;11523;-43
2022/01/22 09:22:31;;;;;;;;;0.00;0.00;13.70;99.90;;;;;;5002918;28;12165;-47
2022/01/22 09:25:01;;;;;;;;;2.00;0.00;13.60;99.90;;;;;;5003821;28;11435;-47
2022/01/22 09:27:31;;;;;;;;;0.00;0.00;13.70;99.90;;;;;;5017943;28;11452;-45
2022/01/22 09:30:01;;;;;;;;;0.00;0.00;13.60;99.90;;;;;;5004797;28;11772;-45
2022/01/22 09:32:33;;;;;;;;;0.00;0.00;13.60;99.90;;;;;;5019572;28;11430;-50
2022/01/22 09:35:21;;;;;;;;;0.00;0.00;13.60;99.90;;;;;;5001533;28;11423;-47
2022/01/22 09:38:14;;;;;;;;;0.00;0.00;13.50;99.90;;;;;;5011189;28;11565;-45
2022/01/22 09:41:07;;;;;;;;;1.00;1.00;13.50;99.90;;;;;;5018489;28;11807;-48
2022/01/22 09:44:13;;;;;;;;;0.00;0.00;13.40;99.90;;;;;;4994733;28;11581;-45
2022/01/22 09:47:01;;;;;;;;;1.50;0.00;13.40;99.90;;;;;;4999904;28;11939;-44
2022/01/22 09:49:50;;;;;;;;;0.00;0.00;13.40;99.90;;;;;;5026709;28;11368;-46
2022/01/22 09:52:51;;;;;;;;;0.00;0.00;13.40;99.90;;;;;;5018961;28;11414;-49
2022/01/22 09:55:41;;;;;;;;;0.00;0.00;13.30;99.90;;;;;;5023747;28;11457;-47
2022/01/22 09:58:37;;;;;;;;;0.00;0.00;13.30;99.90;;;;;;4996749;28;11410;-45
2022/01/22 10:01:45;;;;;;;;;0.00;0.00;13.30;99.90;;;;;;5006722;28;12148;-47
2022/01/22 10:04:36;;;;;;;;;0.00;0.00;13.20;99.90;;;;;;5018655;28;11528;-45
2022/01/22 10:07:32;;;;;;;;;0.00;0.00;13.20;99.90;;;;;;5003670;28;11611;-46
2022/01/22 10:10:21;;;;;;;;;0.00;0.00;13.20;99.90;;;;;;5023816;28;12122;-45
2022/01/22 10:13:09;;;;;;;;;0.00;0.00;13.10;99.90;;;;;;5025061;28;11379;-46
2022/01/22 10:15:46;;;;;;;;;0.00;0.00;13.00;99.90;;;;;;5019093;28;12114;-46
2022/01/22 10:18:23;;;;;;;;;0.00;0.00;13.00;99.90;;;;;;5019273;28;11607;-45
2022/01/22 10:20:52;;;;;;;;;0.00;0.00;12.90;99.90;;;;;;5017029;28;12228;-47
2022/01/22 10:23:26;;;;;;;;;0.00;0.00;12.90;99.90;;;;;;5018422;28;11456;-49
2022/01/22 10:26:02;;;;;;;;;0.00;0.00;12.90;99.90;;;;;;5016484;28;11566;-46
2022/01/22 10:28:47;;;;;;;;;1.75;1.75;13.00;99.90;;;;;;5018997;28;11493;-43
2022/01/22 10:31:24;;;;;;;;;1.00;1.00;12.90;99.90;;;;;;5017546;28;11516;-44
2022/01/22 10:34:21;;;;;;;;;1.75;1.75;12.90;99.90;;;;;;5016595;28;11492;-47
2022/01/22 10:37:09;;;;;;;;;2.00;2.00;12.90;99.90;;;;;;5025165;28;11516;-43
2022/01/22 10:39:47;;;;;;;;;3.00;3.00;12.80;99.90;;;;;;5019841;28;11492;-47
2022/01/22 10:42:22;;;;;;;;;3.00;3.00;12.70;99.90;;;;;;5019158;28;11481;-45
2022/01/22 10:45:00;;;;;;;;;6.50;6.50;12.80;99.90;;;;;;5018004;28;11551;-45
2022/01/22 10:47:30;;;;;;;;;7.00;7.00;12.70;99.90;;;;;;5018294;28;11472;-47
2022/01/22 10:50:22;;;;;;;;;6.00;6.00;12.80;99.90;;;;;;5017865;28;11626;-44
2022/01/22 10:52:55;;;;;;;;;4.00;4.00;12.70;99.90;;;;;;5016319;28;11520;-45
2022/01/22 10:55:25;;;;;;;;;3.00;3.00;12.70;99.90;;;;;;5020107;28;11477;-47
2022/01/22 10:58:15;;;;;;;;;5.00;5.00;12.70;99.90;;;;;;5018379;28;12300;-47
2022/01/22 11:01:00;;;;;;;;;4.75;4.75;12.60;99.90;;;;;;5020133;28;12230;-45
2022/01/22 11:03:31;;;;;;;;;5.25;4.50;12.60;99.90;;;;;;5002346;28;11494;-45
2022/01/22 11:06:07;;;;;;;;;4.50;4.50;12.60;99.90;;;;;;5016529;28;11516;-45
2022/01/22 11:08:38;;;;;;;;;4.50;4.50;12.60;99.90;;;;;;5016639;28;11540;-44
2022/01/22 11:11:11;;;;;;;;;3.50;3.50;12.60;99.90;;;;;;5018482;28;11549;-44
2022/01/22 11:13:42;;;;;;;;;3.00;3.00;12.60;99.90;;;;;;5017819;28;11504;-45
2022/01/22 11:16:17;;;;;;;;;2.50;2.50;12.60;99.90;;;;;;5017080;28;11522;-45
2022/01/22 11:19:09;;;;;;;;;3.25;3.25;12.60;99.90;;;;;;5018576;28;11524;-46
2022/01/22 11:21:47;;;;;;;;;2.50;2.50;12.60;99.90;;;;;;5018941;28;11507;-44
2022/01/22 11:24:20;;;;;;;;;1.75;1.75;12.60;99.90;;;;;;5015739;28;11598;-44
2022/01/22 11:26:58;;;;;;;;;1.75;1.75;12.60;99.90;;;;;;5000649;28;12341;-46
2022/01/22 11:29:32;;;;;;;;;3.50;3.50;12.50;99.90;;;;;;5016210;28;11505;-44
2022/01/22 11:32:07;;;;;;;;;3.00;3.00;12.50;99.90;;;;;;5019016;28;11686;-45
2022/01/22 11:34:39;;;;;;;;;2.00;2.00;12.50;99.90;;;;;;5016142;28;11517;-44
2022/01/22 11:37:28;;;;;;;;;3.00;3.00;12.40;99.90;;;;;;5018000;28;11550;-45
2022/01/22 11:40:19;;;;;;;;;3.00;3.00;12.30;99.90;;;;;;5017915;28;12295;-48
2022/01/22 11:43:05;;;;;;;;;2.75;2.75;12.20;99.90;;;;;;5016531;28;11521;-47
2022/01/22 11:45:53;;;;;;;;;2.25;2.25;12.30;99.90;;;;;;5016663;28;11525;-44
2022/01/22 11:48:31;;;;;;;;;0.25;0.25;12.40;99.90;;;;;;5017856;28;11526;-46
2022/01/22 11:51:24;;;;;;;;;1.25;1.25;12.40;99.90;;;;;;5018316;28;12282;-47
2022/01/22 11:53:59;;;;;;;;;0.50;0.50;12.40;99.90;;;;;;5015214;28;11544;-47
2022/01/22 11:56:52;;;;;;;;;1.00;1.00;12.40;99.90;;;;;;5004111;28;11572;-44
2022/01/22 11:59:33;;;;;;;;;1.50;1.50;12.40;99.90;;;;;;5010887;28;11499;-49
2022/01/22 12:02:05;;;;;;;;;1.00;1.00;12.40;99.90;;;;;;5019421;28;11625;-46
2022/01/22 12:04:39;;;;;;;;;1.00;1.00;12.40;99.90;;;;;;5015673;28;11502;-47
2022/01/22 12:07:12;;;;;;;;;1.00;1.00;12.40;99.90;;;;;;5006429;28;12222;-48
2022/01/22 12:10:33;;;;;;;;;1.75;1.75;12.30;99.90;;;;;;5018423;28;12380;-47
2022/01/22 12:16:43;;;;;;;;;2.50;2.50;12.30;99.90;;;;;;4972255;28;11777;-46
2022/01/22 12:22:33;;;;;;;;;2.00;2.00;12.30;99.90;;;;;;5021188;28;12256;-47
2022/01/22 12:25:10;;;;;;;;;1.75;1.75;12.30;99.90;;;;;;4992253;28;12168;-47
2022/01/22 12:27:50;;;;;;;;;1.00;1.00;12.30;99.90;;;;;;5017140;28;11506;-46
2022/01/22 12:30:43;;;;;;;;;1.25;1.25;12.30;99.90;;;;;;5019444;28;11488;-49
2022/01/22 12:33:37;;;;;;;;;2.00;2.00;12.20;99.90;;;;;;5021657;28;12335;-46
2022/01/22 12:36:17;;;;;;;;;1.75;1.75;12.20;99.90;;;;;;5015535;28;11689;-45
2022/01/22 12:39:16;;;;;;;;;1.00;1.00;12.20;99.90;;;;;;5021174;28;11558;-44
2022/01/22 12:41:57;;;;;;;;;1.00;1.00;12.20;99.90;;;;;;5018562;28;11476;-46
2022/01/22 12:44:31;;;;;;;;;1.00;1.00;12.20;99.90;;;;;;5019991;28;12281;-43
2022/01/22 12:47:22;;;;;;;;;0.00;0.00;12.20;99.90;;;;;;5020701;28;11492;-44
2022/01/22 12:50:08;;;;;;;;;1.00;1.00;12.20;99.90;;;;;;5021565;28;11480;-44
2022/01/22 12:52:45;;;;;;;;;1.00;1.00;12.10;99.90;;;;;;5018663;28;11592;-45
2022/01/22 12:55:17;;;;;;;;;1.50;1.50;12.10;99.90;;;;;;5020501;28;11513;-45
2022/01/22 12:58:00;;;;;;;;;0.00;0.00;12.00;99.90;;;;;;5018126;28;11503;-44
2022/01/22 13:00:30;;;;;;;;;0.00;0.00;12.00;99.90;;;;;;5019201;28;11503;-45
2022/01/22 13:03:01;;;;;;;;;0.00;0.00;11.90;99.90;;;;;;5019800;28;11520;-46
2022/01/22 13:05:31;;;;;;;;;0.00;0.00;11.90;99.90;;;;;;5020827;28;11457;-48
2022/01/22 13:08:07;;;;;;;;;0.00;0.00;11.90;99.90;;;;;;5021981;28;11436;-45
2022/01/22 13:11:00;;;;;;;;;0.00;0.00;11.90;99.90;;;;;;5022109;28;11697;-45
2022/01/22 13:13:47;;;;;;;;;0.00;0.00;12.00;99.90;;;;;;5020524;28;12219;-49
2022/01/22 13:16:21;;;;;;;;;0.00;0.00;12.00;99.90;;;;;;5017855;28;11492;-44
2022/01/22 13:19:00;;;;;;;;;0.25;0.25;12.00;99.90;;;;;;5018410;28;11508;-43
2022/01/22 13:21:33;;;;;;;;;1.75;1.75;11.90;99.90;;;;;;5022575;28;11473;-44
2022/01/22 13:24:10;;;;;;;;;3.50;3.50;11.90;99.90;;;;;;5010383;28;11471;-44
2022/01/22 13:26:56;;;;;;;;;14.25;12.75;12.00;99.90;;;;;;5018670;28;11451;-46
2022/01/22 13:29:34;;;;;;;;;11.25;11.25;11.90;99.90;;;;;;5018671;28;11509;-44
2022/01/22 13:35:23;;;;;;;;;10.75;10.75;11.90;99.90;;;;;;5004955;28;11551;-45
2022/01/22 13:49:54;;;;;;;;;0.00;0.00;11.80;99.90;;;;;;5019826;28;11484;-47
2022/01/22 13:52:30;;;;;;;;;0.00;0.00;11.80;99.90;;;;;;5019954;28;12063;-46
2022/01/22 13:55:00;;;;;;;;;1.50;0.00;11.70;99.90;;;;;;5015171;28;11490;-48
2022/01/22 13:57:37;;;;;;;;;0.00;0.00;11.70;99.90;;;;;;5017807;28;11503;-45
2022/01/22 14:00:17;;;;;;;;;0.00;0.00;11.70;99.90;;;;;;5016648;28;11459;-47
2022/01/22 14:03:31;;;;;;;;;0.00;0.00;11.70;99.90;;;;;;5012990;28;11523;-47
2022/01/22 14:06:02;;;;;;;;;0.00;0.00;11.60;99.90;;;;;;5013884;28;11668;-49
2022/01/22 14:08:34;;;;;;;;;0.00;0.00;11.50;99.90;;;;;;5014202;28;11498;-46
2022/01/22 14:11:15;;;;;;;;;0.00;0.00;11.40;99.90;;;;;;5016641;28;11487;-47
2022/01/22 14:14:05;;;;;;;;;0.00;0.00;11.40;99.90;;;;;;5001170;28;11644;-45
2022/01/22 14:16:35;;;;;;;;;0.00;0.00;11.30;99.90;;;;;;5017510;28;11511;-47
2022/01/22 14:19:05;;;;;;;;;0.00;0.00;11.30;99.90;;;;;;5021023;28;11506;-45
2022/01/22 14:21:37;;;;;;;;;0.00;0.00;11.30;99.90;;;;;;5019539;28;11475;-45
2022/01/22 14:24:10;;;;;;;;;0.00;0.00;11.30;99.90;;;;;;5016618;28;12279;-45
2022/01/22 14:26:41;;;;;;;;;0.00;0.00;11.30;99.90;;;;;;5003560;28;11501;-46
2022/01/22 14:29:14;;;;;;;;;0.00;0.00;11.30;99.90;;;;;;5019965;28;11481;-49
2022/01/22 14:31:49;;;;;;;;;0.00;0.00;11.20;99.90;;;;;;5017854;28;11511;-47
2022/01/22 14:34:35;;;;;;;;;0.00;0.00;11.10;99.90;;;;;;5019093;28;11491;-46
2022/01/22 14:37:08;;;;;;;;;0.00;0.00;11.10;99.90;;;;;;5018129;28;11489;-44
2022/01/22 14:45:36;;;;;;;;;0.00;0.00;11.30;99.90;;;;;;5018549;28;11443;-45
2022/01/22 14:48:07;;;;;;;;;0.00;0.00;11.20;99.90;;;;;;5018752;28;11619;-45
2022/01/22 14:50:38;;;;;;;;;0.00;0.00;11.20;99.90;;;;;;5016358;28;11484;-46
2022/01/22 14:53:10;;;;;;;;;0.00;0.00;11.10;99.90;;;;;;5019888;28;11519;-44
2022/01/22 14:55:52;;;;;;;;;0.00;0.00;11.10;99.90;;;;;;5016391;28;11472;-45
2022/01/22 14:58:23;;;;;;;;;0.00;0.00;11.10;99.90;;;;;;5020088;28;11447;-45
2022/01/22 15:00:54;;;;;;;;;0.00;0.00;11.10;99.90;;;;;;5017774;28;12223;-45
2022/01/22 15:03:29;;;;;;;;;0.00;0.00;11.10;99.90;;;;;;5018438;28;11666;-46
2022/01/22 15:06:00;;;;;;;;;0.00;0.00;11.10;99.90;;;;;;5016225;28;11670;-47
2022/01/22 15:08:31;;;;;;;;;0.50;0.00;11.20;99.90;;;;;;5018787;28;11537;-45
2022/01/22 15:11:05;;;;;;;;;0.50;0.00;11.20;99.90;;;;;;5017641;28;11523;-45
2022/01/22 15:13:35;;;;;;;;;0.00;0.00;11.10;99.90;;;;;;5019684;28;11476;-46
2022/01/22 15:16:08;;;;;;;;;0.00;0.00;11.00;99.90;;;;;;5019317;28;11489;-47
2022/01/22 15:21:14;;;;;;;;;0.00;0.00;11.10;99.90;;;;;;5018069;28;11495;-47
2022/01/22 15:23:47;;;;;;;;;0.00;0.00;11.10;99.90;;;;;;5020226;28;11531;-46
2022/01/22 15:26:17;;;;;;;;;0.00;0.00;11.10;99.90;;;;;;5017188;28;11502;-46
2022/01/22 15:28:48;;;;;;;;;0.00;0.00;11.10;99.90;;;;;;5016667;28;12043;-44
2022/01/22 15:31:29;;;;;;;;;0.00;0.00;11.10;99.90;;;;;;5015773;28;11611;-46
2022/01/22 15:37:05;;;;;;;;;0.00;0.00;11.00;99.90;;;;;;5016399;28;11512;-47
2022/01/22 15:39:36;;;;;;;;;0.00;0.00;11.00;99.90;;;;;;5018784;28;11663;-45
2022/01/22 15:42:07;;;;;;;;;0.00;0.00;11.00;99.90;;;;;;5015589;28;12166;-48
2022/01/22 15:44:38;;;;;;;;;0.00;0.00;10.90;99.90;;;;;;5019112;28;12064;-43
2022/01/22 15:47:12;;;;;;;;;0.00;0.00;10.80;99.90;;;;;;5016001;28;11542;-48
2022/01/22 15:49:50;;;;;;;;;1.00;0.00;10.80;99.90;;;;;;5012775;28;11475;-46
2022/01/22 15:52:21;;;;;;;;;0.00;0.00;10.80;99.90;;;;;;5016044;28;11510;-45